Home   Weather   Poland   Częstochowa   Past weeks
Flag for Poland

Past Weather in Częstochowa, Poland — Yesterday and Last 2 Weeks

Currently: 73 °F. Sunny. (Weather station: Katowice Airport, Poland). See more current weather

Past Weather in Częstochowa — Graph

°F

Częstochowa Temperature Yesterday

Maximum temperature yesterday: 68 °F (at 5:00 pm)
Minimum temperature yesterday: 54 °F (at 11:00 pm)
Average temperature yesterday: 62 °F

High & Low Weather Summary for the Past Weeks

 TemperatureHumidityPressure
High93 °F (Jul 1, 2:30 pm)100% (Jun 20, 8:30 pm)30.27 "Hg (Jun 20, 8:30 pm)
Low45 °F (Jun 22, 3:00 am)30% (Jun 24, 2:30 pm)29.74 "Hg (Jun 20, 12:30 pm)
Average69 °F66%29.99 "Hg
* Reported Jun 18 8:00 pm — Jul 3 8:00 pm, Częstochowa. Weather by CustomWeather, © 2022

Note: Actual official high and low records may vary slightly from our data, if they occured in-between our weather recording intervals... More about our weather records

Częstochowa Weather History for the Previous 24 Hours

Scroll right to see more
 ConditionsComfort  
Time TempWeatherWind HumidityBarometerVisibility
8:00 pm
Sun, Jul 3
73 °FSunny.3 mph61%30.07 "Hg10 mi
7:00 pm77 °FSunny.2 mph47%30.07 "Hg10 mi
6:30 pm77 °FSunny.2 mph47%30.07 "Hg10 mi
6:00 pm77 °FPassing clouds.5 mph47%30.07 "HgN/A
5:30 pm77 °FSunny.1 mph47%30.07 "Hg10 mi
5:00 pm77 °FSunny.2 mph47%30.07 "Hg10 mi
4:30 pm77 °FPassing clouds.6 mph51%30.09 "HgN/A
4:00 pm77 °FPassing clouds.6 mph51%30.09 "HgN/A
3:30 pm75 °FPassing clouds.5 mph54%30.09 "HgN/A
3:00 pm75 °FPassing clouds.5 mph47%30.09 "HgN/A
2:30 pm73 °FPassing clouds.3 mph53%30.09 "HgN/A
2:00 pm75 °FPassing clouds.5 mph50%30.12 "HgN/A
1:00 pm73 °FScattered clouds.5 mph57%30.12 "HgN/A
12:30 pm73 °FScattered clouds.5 mph57%30.12 "HgN/A
12:00 pm70 °FScattered clouds.5 mph64%30.15 "HgN/A
11:30 am70 °FPartly sunny.5 mph69%30.15 "HgN/A
11:00 am68 °FScattered clouds.5 mph69%30.15 "HgN/A
10:30 am66 °FScattered clouds.6 mph73%30.15 "HgN/A
10:00 am66 °FPartly sunny.7 mph78%30.15 "HgN/A
9:30 am64 °FPartly sunny.8 mph78%30.15 "HgN/A
9:00 am63 °FPartly sunny.8 mph83%30.15 "HgN/A
8:30 am63 °FPartly sunny.8 mph83%30.18 "HgN/A
8:00 am61 °FPartly sunny.10 mph94%30.18 "HgN/A
7:00 am61 °FPassing clouds.7 mph88%30.15 "HgN/A
6:30 am57 °FClear.6 mph100%30.18 "Hg4 mi
6:00 am54 °FFog.1 mph100%30.18 "Hg3 mi
5:30 am52 °FFog.2 mph94%30.18 "Hg5 mi
5:00 am48 °FLight fog.3 mph100%30.18 "Hg4 mi
4:30 am48 °FFog.2 mph100%30.18 "Hg1 mi
4:00 am48 °FFog.1 mph100%30.18 "Hg0 mi
3:30 am48 °FFog.2 mph100%30.18 "Hg0 mi
3:00 am50 °FFog.3 mph100%30.18 "Hg2 mi
1:30 am50 °FCool.2 mph100%30.21 "Hg1 mi
1:00 am50 °FCool.2 mph100%30.21 "Hg1 mi
12:30 am52 °FCool.2 mph94%30.21 "Hg2 mi
12:00 am54 °FLight fog.3 mph100%30.21 "Hg4 mi
11:00 pm
Sat, Jul 2
54 °FClear.3 mph100%30.21 "Hg10 mi
10:00 pm57 °FClear.3 mph94%30.21 "Hg10 mi
9:30 pm57 °FClear.5 mph94%30.21 "Hg10 mi
9:00 pm61 °FClear.5 mph88%30.21 "Hg10 mi
8:00 pm66 °FPassing clouds.6 mph68%30.24 "HgN/A
Weather by CustomWeather, © 2022

See weather overview